sensor_id;sensor_type;location;lat;lon;timestamp;P1;durP1;ratioP1;P2;durP2;ratioP2
980;SDS011;479;53.514;9.994;2023-07-22T00:01:50;4.80;;;4.20;;
980;SDS011;479;53.514;9.994;2023-07-22T00:04:17;4.60;;;4.20;;
980;SDS011;479;53.514;9.994;2023-07-22T00:06:44;5.13;;;4.63;;
980;SDS011;479;53.514;9.994;2023-07-22T00:09:11;5.60;;;4.93;;
980;SDS011;479;53.514;9.994;2023-07-22T00:11:38;4.77;;;4.23;;
980;SDS011;479;53.514;9.994;2023-07-22T00:14:05;4.90;;;4.40;;
980;SDS011;479;53.514;9.994;2023-07-22T00:16:32;6.17;;;3.93;;
980;SDS011;479;53.514;9.994;2023-07-22T00:19:00;6.03;;;4.83;;
980;SDS011;479;53.514;9.994;2023-07-22T00:21:27;4.70;;;4.30;;
980;SDS011;479;53.514;9.994;2023-07-22T00:23:54;5.10;;;4.50;;
980;SDS011;479;53.514;9.994;2023-07-22T00:26:21;5.00;;;4.50;;
980;SDS011;479;53.514;9.994;2023-07-22T00:28:48;6.90;;;5.17;;
980;SDS011;479;53.514;9.994;2023-07-22T00:31:15;7.07;;;5.30;;
980;SDS011;479;53.514;9.994;2023-07-22T00:33:42;5.00;;;4.60;;
980;SDS011;479;53.514;9.994;2023-07-22T00:36:11;4.60;;;4.13;;
980;SDS011;479;53.514;9.994;2023-07-22T00:38:37;9.80;;;6.07;;
980;SDS011;479;53.514;9.994;2023-07-22T00:41:05;5.90;;;4.80;;
980;SDS011;479;53.514;9.994;2023-07-22T00:43:32;8.23;;;4.53;;
980;SDS011;479;53.514;9.994;2023-07-22T00:45:59;5.20;;;4.63;;
980;SDS011;479;53.514;9.994;2023-07-22T00:48:26;8.00;;;5.50;;
980;SDS011;479;53.514;9.994;2023-07-22T00:50:54;5.50;;;4.90;;
980;SDS011;479;53.514;9.994;2023-07-22T00:53:22;5.50;;;4.70;;
980;SDS011;479;53.514;9.994;2023-07-22T00:55:49;11.83;;;5.47;;
980;SDS011;479;53.514;9.994;2023-07-22T00:58:16;6.53;;;5.47;;
980;SDS011;479;53.514;9.994;2023-07-22T01:00:43;9.50;;;5.37;;
980;SDS011;479;53.514;9.994;2023-07-22T01:03:10;4.90;;;4.40;;
980;SDS011;479;53.514;9.994;2023-07-22T01:05:38;7.80;;;4.60;;
980;SDS011;479;53.514;9.994;2023-07-22T01:08:06;6.00;;;4.37;;
980;SDS011;479;53.514;9.994;2023-07-22T01:10:35;5.30;;;4.70;;
980;SDS011;479;53.514;9.994;2023-07-22T01:13:02;5.70;;;5.10;;
980;SDS011;479;53.514;9.994;2023-07-22T01:15:29;7.60;;;4.63;;
980;SDS011;479;53.514;9.994;2023-07-22T01:17:57;7.30;;;4.30;;
980;SDS011;479;53.514;9.994;2023-07-22T01:20:27;7.87;;;5.50;;
980;SDS011;479;53.514;9.994;2023-07-22T01:22:56;6.10;;;4.63;;
980;SDS011;479;53.514;9.994;2023-07-22T01:25:23;5.90;;;4.73;;
980;SDS011;479;53.514;9.994;2023-07-22T01:27:51;10.73;;;4.90;;
980;SDS011;479;53.514;9.994;2023-07-22T01:30:18;5.30;;;4.27;;
980;SDS011;479;53.514;9.994;2023-07-22T01:32:46;8.63;;;5.07;;
980;SDS011;479;53.514;9.994;2023-07-22T01:35:16;7.97;;;5.03;;
980;SDS011;479;53.514;9.994;2023-07-22T01:37:43;7.70;;;4.20;;
980;SDS011;479;53.514;9.994;2023-07-22T01:40:12;7.50;;;5.17;;
980;SDS011;479;53.514;9.994;2023-07-22T01:42:39;6.73;;;5.30;;
980;SDS011;479;53.514;9.994;2023-07-22T01:45:07;7.07;;;4.30;;
980;SDS011;479;53.514;9.994;2023-07-22T01:47:35;5.67;;;4.33;;
980;SDS011;479;53.514;9.994;2023-07-22T01:50:03;7.20;;;4.70;;
980;SDS011;479;53.514;9.994;2023-07-22T01:52:32;5.80;;;4.57;;
980;SDS011;479;53.514;9.994;2023-07-22T01:54:59;5.43;;;4.60;;
980;SDS011;479;53.514;9.994;2023-07-22T01:57:27;10.40;;;3.90;;
980;SDS011;479;53.514;9.994;2023-07-22T01:59:57;5.40;;;4.27;;
980;SDS011;479;53.514;9.994;2023-07-22T02:02:26;5.60;;;4.80;;
980;SDS011;479;53.514;9.994;2023-07-22T02:04:55;5.87;;;4.50;;
980;SDS011;479;53.514;9.994;2023-07-22T02:07:27;9.80;;;5.73;;
980;SDS011;479;53.514;9.994;2023-07-22T02:09:54;6.37;;;4.47;;
980;SDS011;479;53.514;9.994;2023-07-22T02:12:21;6.40;;;4.87;;
980;SDS011;479;53.514;9.994;2023-07-22T02:14:50;8.93;;;5.87;;
980;SDS011;479;53.514;9.994;2023-07-22T02:17:17;6.40;;;4.93;;
980;SDS011;479;53.514;9.994;2023-07-22T02:19:45;9.20;;;5.73;;
980;SDS011;479;53.514;9.994;2023-07-22T02:22:12;7.77;;;5.70;;
980;SDS011;479;53.514;9.994;2023-07-22T02:24:39;7.80;;;5.03;;
980;SDS011;479;53.514;9.994;2023-07-22T02:27:09;6.27;;;4.80;;
980;SDS011;479;53.514;9.994;2023-07-22T02:29:36;6.03;;;5.43;;
980;SDS011;479;53.514;9.994;2023-07-22T02:32:05;6.27;;;4.97;;
980;SDS011;479;53.514;9.994;2023-07-22T02:34:32;6.53;;;5.30;;
980;SDS011;479;53.514;9.994;2023-07-22T02:36:59;5.70;;;5.13;;
980;SDS011;479;53.514;9.994;2023-07-22T02:39:26;6.50;;;5.33;;
980;SDS011;479;53.514;9.994;2023-07-22T02:41:53;6.63;;;4.70;;
980;SDS011;479;53.514;9.994;2023-07-22T02:44:20;8.13;;;5.50;;
980;SDS011;479;53.514;9.994;2023-07-22T02:46:47;7.93;;;4.80;;
980;SDS011;479;53.514;9.994;2023-07-22T02:49:15;7.93;;;5.47;;
980;SDS011;479;53.514;9.994;2023-07-22T02:51:42;6.53;;;4.63;;
980;SDS011;479;53.514;9.994;2023-07-22T02:54:09;9.47;;;5.80;;
980;SDS011;479;53.514;9.994;2023-07-22T02:56:35;7.57;;;4.87;;
980;SDS011;479;53.514;9.994;2023-07-22T02:59:02;8.87;;;5.13;;
980;SDS011;479;53.514;9.994;2023-07-22T03:01:29;12.80;;;5.63;;
980;SDS011;479;53.514;9.994;2023-07-22T03:03:56;7.77;;;5.17;;
980;SDS011;479;53.514;9.994;2023-07-22T03:06:25;8.23;;;5.67;;
980;SDS011;479;53.514;9.994;2023-07-22T03:08:52;6.07;;;4.60;;
980;SDS011;479;53.514;9.994;2023-07-22T03:11:19;10.93;;;4.80;;
980;SDS011;479;53.514;9.994;2023-07-22T03:13:50;8.80;;;5.60;;
980;SDS011;479;53.514;9.994;2023-07-22T03:16:17;6.50;;;4.40;;
980;SDS011;479;53.514;9.994;2023-07-22T03:18:44;10.50;;;4.70;;
980;SDS011;479;53.514;9.994;2023-07-22T03:21:11;8.30;;;5.80;;
980;SDS011;479;53.514;9.994;2023-07-22T03:23:39;6.90;;;5.30;;
980;SDS011;479;53.514;9.994;2023-07-22T03:26:06;9.07;;;4.87;;
980;SDS011;479;53.514;9.994;2023-07-22T03:28:33;9.50;;;4.90;;
980;SDS011;479;53.514;9.994;2023-07-22T03:31:00;10.27;;;4.70;;
980;SDS011;479;53.514;9.994;2023-07-22T03:33:27;11.20;;;5.37;;
980;SDS011;479;53.514;9.994;2023-07-22T03:35:54;7.40;;;5.07;;
980;SDS011;479;53.514;9.994;2023-07-22T03:38:21;8.27;;;5.30;;
980;SDS011;479;53.514;9.994;2023-07-22T03:40:49;4.67;;;4.20;;
980;SDS011;479;53.514;9.994;2023-07-22T03:43:18;8.43;;;5.50;;
980;SDS011;479;53.514;9.994;2023-07-22T03:45:45;6.73;;;4.50;;
980;SDS011;479;53.514;9.994;2023-07-22T03:48:12;9.90;;;5.43;;
980;SDS011;479;53.514;9.994;2023-07-22T03:50:38;6.40;;;4.13;;
980;SDS011;479;53.514;9.994;2023-07-22T03:53:05;7.83;;;4.60;;
980;SDS011;479;53.514;9.994;2023-07-22T03:55:32;8.67;;;5.10;;
980;SDS011;479;53.514;9.994;2023-07-22T03:58:00;6.10;;;4.83;;
980;SDS011;479;53.514;9.994;2023-07-22T04:00:27;9.30;;;5.03;;
980;SDS011;479;53.514;9.994;2023-07-22T04:02:54;7.67;;;5.57;;
980;SDS011;479;53.514;9.994;2023-07-22T04:05:21;5.60;;;4.97;;
980;SDS011;479;53.514;9.994;2023-07-22T04:07:48;9.97;;;4.20;;
980;SDS011;479;53.514;9.994;2023-07-22T04:10:17;5.40;;;4.53;;
980;SDS011;479;53.514;9.994;2023-07-22T04:12:45;6.10;;;4.73;;
980;SDS011;479;53.514;9.994;2023-07-22T04:15:13;6.70;;;5.17;;
980;SDS011;479;53.514;9.994;2023-07-22T04:17:42;6.70;;;4.83;;
980;SDS011;479;53.514;9.994;2023-07-22T04:20:09;5.87;;;4.57;;
980;SDS011;479;53.514;9.994;2023-07-22T04:22:37;9.63;;;5.40;;
980;SDS011;479;53.514;9.994;2023-07-22T04:25:04;9.03;;;5.37;;
980;SDS011;479;53.514;9.994;2023-07-22T04:27:31;5.80;;;4.27;;
980;SDS011;479;53.514;9.994;2023-07-22T04:29:59;6.27;;;4.40;;
980;SDS011;479;53.514;9.994;2023-07-22T04:32:28;6.57;;;5.17;;
980;SDS011;479;53.514;9.994;2023-07-22T04:34:55;5.40;;;4.23;;
980;SDS011;479;53.514;9.994;2023-07-22T04:37:22;6.83;;;4.07;;
980;SDS011;479;53.514;9.994;2023-07-22T04:39:49;6.70;;;5.23;;
980;SDS011;479;53.514;9.994;2023-07-22T04:42:16;7.60;;;4.30;;
980;SDS011;479;53.514;9.994;2023-07-22T04:44:43;9.30;;;4.43;;
980;SDS011;479;53.514;9.994;2023-07-22T04:47:10;6.30;;;4.70;;
980;SDS011;479;53.514;9.994;2023-07-22T04:49:39;5.47;;;4.30;;
980;SDS011;479;53.514;9.994;2023-07-22T04:52:06;6.10;;;5.27;;
980;SDS011;479;53.514;9.994;2023-07-22T04:54:33;6.43;;;4.13;;
980;SDS011;479;53.514;9.994;2023-07-22T04:57:00;7.60;;;4.80;;
980;SDS011;479;53.514;9.994;2023-07-22T04:59:28;4.50;;;3.70;;
980;SDS011;479;53.514;9.994;2023-07-22T05:01:54;8.73;;;5.20;;
980;SDS011;479;53.514;9.994;2023-07-22T05:04:21;9.10;;;4.63;;
980;SDS011;479;53.514;9.994;2023-07-22T05:06:50;5.70;;;4.67;;
980;SDS011;479;53.514;9.994;2023-07-22T05:09:17;7.07;;;4.80;;
980;SDS011;479;53.514;9.994;2023-07-22T05:11:44;6.73;;;4.30;;
980;SDS011;479;53.514;9.994;2023-07-22T05:14:11;9.70;;;4.70;;
980;SDS011;479;53.514;9.994;2023-07-22T05:16:38;6.20;;;4.30;;
980;SDS011;479;53.514;9.994;2023-07-22T05:19:05;7.37;;;4.63;;
980;SDS011;479;53.514;9.994;2023-07-22T05:21:33;7.30;;;4.60;;
980;SDS011;479;53.514;9.994;2023-07-22T05:24:01;5.70;;;3.30;;
980;SDS011;479;53.514;9.994;2023-07-22T05:26:29;5.57;;;4.50;;
980;SDS011;479;53.514;9.994;2023-07-22T05:28:56;4.77;;;3.80;;
980;SDS011;479;53.514;9.994;2023-07-22T05:31:23;5.03;;;3.77;;
980;SDS011;479;53.514;9.994;2023-07-22T05:33:50;5.93;;;3.87;;
980;SDS011;479;53.514;9.994;2023-07-22T05:36:17;4.83;;;4.07;;
980;SDS011;479;53.514;9.994;2023-07-22T05:38:44;6.30;;;4.30;;
980;SDS011;479;53.514;9.994;2023-07-22T05:41:12;5.57;;;3.90;;
980;SDS011;479;53.514;9.994;2023-07-22T05:43:39;7.40;;;3.70;;
980;SDS011;479;53.514;9.994;2023-07-22T05:46:06;4.40;;;3.43;;
980;SDS011;479;53.514;9.994;2023-07-22T05:48:32;8.87;;;4.47;;
980;SDS011;479;53.514;9.994;2023-07-22T05:50:59;4.00;;;3.30;;
980;SDS011;479;53.514;9.994;2023-07-22T05:53:26;6.53;;;4.60;;
980;SDS011;479;53.514;9.994;2023-07-22T05:55:53;4.97;;;3.37;;
980;SDS011;479;53.514;9.994;2023-07-22T05:58:22;7.90;;;3.17;;
980;SDS011;479;53.514;9.994;2023-07-22T06:00:48;8.40;;;4.23;;
980;SDS011;479;53.514;9.994;2023-07-22T06:03:16;3.73;;;3.33;;
980;SDS011;479;53.514;9.994;2023-07-22T06:05:43;5.53;;;3.37;;
980;SDS011;479;53.514;9.994;2023-07-22T06:08:10;3.40;;;2.80;;
980;SDS011;479;53.514;9.994;2023-07-22T06:10:37;4.17;;;3.13;;
980;SDS011;479;53.514;9.994;2023-07-22T06:13:04;5.00;;;3.03;;
980;SDS011;479;53.514;9.994;2023-07-22T06:15:32;4.17;;;3.70;;
980;SDS011;479;53.514;9.994;2023-07-22T06:17:59;4.67;;;3.43;;
980;SDS011;479;53.514;9.994;2023-07-22T06:20:26;3.87;;;3.13;;
980;SDS011;479;53.514;9.994;2023-07-22T06:22:54;3.47;;;3.17;;
980;SDS011;479;53.514;9.994;2023-07-22T06:25:21;4.63;;;3.70;;
980;SDS011;479;53.514;9.994;2023-07-22T06:27:48;3.90;;;3.00;;
980;SDS011;479;53.514;9.994;2023-07-22T06:30:15;3.40;;;2.70;;
980;SDS011;479;53.514;9.994;2023-07-22T06:32:43;3.80;;;3.00;;
980;SDS011;479;53.514;9.994;2023-07-22T06:35:10;3.27;;;2.30;;
980;SDS011;479;53.514;9.994;2023-07-22T06:37:37;4.07;;;2.57;;
980;SDS011;479;53.514;9.994;2023-07-22T06:40:05;5.03;;;3.40;;
980;SDS011;479;53.514;9.994;2023-07-22T06:42:33;2.90;;;2.60;;
980;SDS011;479;53.514;9.994;2023-07-22T06:45:00;6.03;;;3.13;;
980;SDS011;479;53.514;9.994;2023-07-22T06:47:27;4.30;;;2.80;;
980;SDS011;479;53.514;9.994;2023-07-22T06:49:56;4.07;;;3.30;;
980;SDS011;479;53.514;9.994;2023-07-22T06:52:23;3.93;;;3.53;;
980;SDS011;479;53.514;9.994;2023-07-22T06:54:50;5.10;;;3.20;;
980;SDS011;479;53.514;9.994;2023-07-22T06:57:16;2.80;;;2.57;;
980;SDS011;479;53.514;9.994;2023-07-22T06:59:43;3.10;;;2.50;;
980;SDS011;479;53.514;9.994;2023-07-22T07:02:10;3.07;;;2.07;;
980;SDS011;479;53.514;9.994;2023-07-22T07:04:37;5.73;;;2.50;;
980;SDS011;479;53.514;9.994;2023-07-22T07:07:05;2.73;;;2.53;;
980;SDS011;479;53.514;9.994;2023-07-22T07:09:34;4.00;;;2.20;;
980;SDS011;479;53.514;9.994;2023-07-22T07:12:02;2.20;;;2.00;;
980;SDS011;479;53.514;9.994;2023-07-22T07:14:29;3.70;;;2.53;;
980;SDS011;479;53.514;9.994;2023-07-22T07:16:56;3.90;;;2.63;;
980;SDS011;479;53.514;9.994;2023-07-22T07:19:23;3.70;;;2.50;;
980;SDS011;479;53.514;9.994;2023-07-22T07:21:50;2.23;;;2.03;;
980;SDS011;479;53.514;9.994;2023-07-22T07:24:20;3.73;;;2.57;;
980;SDS011;479;53.514;9.994;2023-07-22T07:26:47;3.90;;;2.27;;
980;SDS011;479;53.514;9.994;2023-07-22T07:29:14;2.90;;;2.60;;
980;SDS011;479;53.514;9.994;2023-07-22T07:31:41;4.90;;;2.10;;
980;SDS011;479;53.514;9.994;2023-07-22T07:34:07;4.37;;;2.07;;
980;SDS011;479;53.514;9.994;2023-07-22T07:36:34;2.10;;;1.63;;
980;SDS011;479;53.514;9.994;2023-07-22T07:39:01;2.77;;;2.30;;
980;SDS011;479;53.514;9.994;2023-07-22T07:41:30;3.17;;;2.60;;
980;SDS011;479;53.514;9.994;2023-07-22T07:43:57;2.50;;;2.07;;
980;SDS011;479;53.514;9.994;2023-07-22T07:46:26;4.17;;;2.47;;
980;SDS011;479;53.514;9.994;2023-07-22T07:48:55;2.40;;;2.20;;
980;SDS011;479;53.514;9.994;2023-07-22T07:51:24;2.10;;;1.80;;
980;SDS011;479;53.514;9.994;2023-07-22T07:53:53;6.80;;;2.53;;
980;SDS011;479;53.514;9.994;2023-07-22T07:56:21;1.90;;;1.70;;
980;SDS011;479;53.514;9.994;2023-07-22T07:58:50;3.30;;;2.47;;
980;SDS011;479;53.514;9.994;2023-07-22T08:01:19;2.47;;;2.10;;
980;SDS011;479;53.514;9.994;2023-07-22T08:03:46;3.10;;;2.30;;
980;SDS011;479;53.514;9.994;2023-07-22T08:06:13;3.23;;;2.93;;
980;SDS011;479;53.514;9.994;2023-07-22T08:08:40;4.13;;;2.90;;
980;SDS011;479;53.514;9.994;2023-07-22T08:11:07;3.17;;;2.30;;
980;SDS011;479;53.514;9.994;2023-07-22T08:13:38;4.97;;;3.33;;
980;SDS011;479;53.514;9.994;2023-07-22T08:16:07;5.33;;;2.57;;
980;SDS011;479;53.514;9.994;2023-07-22T08:18:35;1.90;;;1.70;;
980;SDS011;479;53.514;9.994;2023-07-22T08:21:03;7.37;;;1.90;;
980;SDS011;479;53.514;9.994;2023-07-22T08:23:32;3.67;;;2.00;;
980;SDS011;479;53.514;9.994;2023-07-22T08:25:59;1.53;;;1.43;;
980;SDS011;479;53.514;9.994;2023-07-22T08:28:26;2.27;;;1.80;;
980;SDS011;479;53.514;9.994;2023-07-22T08:30:54;2.10;;;1.90;;
980;SDS011;479;53.514;9.994;2023-07-22T08:33:23;1.70;;;1.60;;
980;SDS011;479;53.514;9.994;2023-07-22T08:35:50;3.53;;;1.93;;
980;SDS011;479;53.514;9.994;2023-07-22T08:38:19;1.70;;;1.60;;
980;SDS011;479;53.514;9.994;2023-07-22T08:40:48;1.60;;;1.50;;
980;SDS011;479;53.514;9.994;2023-07-22T08:43:16;2.93;;;1.30;;
980;SDS011;479;53.514;9.994;2023-07-22T08:45:46;1.20;;;1.10;;
980;SDS011;479;53.514;9.994;2023-07-22T08:48:15;1.70;;;1.20;;
980;SDS011;479;53.514;9.994;2023-07-22T08:50:45;2.50;;;2.30;;
980;SDS011;479;53.514;9.994;2023-07-22T08:53:15;1.70;;;1.50;;
980;SDS011;479;53.514;9.994;2023-07-22T08:55:44;1.60;;;1.50;;
980;SDS011;479;53.514;9.994;2023-07-22T08:58:13;1.63;;;1.53;;
980;SDS011;479;53.514;9.994;2023-07-22T09:00:40;3.30;;;1.90;;
980;SDS011;479;53.514;9.994;2023-07-22T09:03:07;3.13;;;2.57;;
980;SDS011;479;53.514;9.994;2023-07-22T09:05:36;3.73;;;3.43;;
980;SDS011;479;53.514;9.994;2023-07-22T09:08:05;1.43;;;1.17;;
980;SDS011;479;53.514;9.994;2023-07-22T09:10:33;1.20;;;1.10;;
980;SDS011;479;53.514;9.994;2023-07-22T09:13:01;2.90;;;2.60;;
980;SDS011;479;53.514;9.994;2023-07-22T09:15:28;1.83;;;1.73;;
980;SDS011;479;53.514;9.994;2023-07-22T09:17:55;2.03;;;1.83;;
980;SDS011;479;53.514;9.994;2023-07-22T09:20:22;1.00;;;1.00;;
980;SDS011;479;53.514;9.994;2023-07-22T09:22:49;1.60;;;1.50;;
980;SDS011;479;53.514;9.994;2023-07-22T09:25:19;3.17;;;1.47;;
980;SDS011;479;53.514;9.994;2023-07-22T09:27:47;1.47;;;0.90;;
980;SDS011;479;53.514;9.994;2023-07-22T09:30:21;2.40;;;1.47;;
980;SDS011;479;53.514;9.994;2023-07-22T09:32:51;2.17;;;1.50;;
980;SDS011;479;53.514;9.994;2023-07-22T09:35:19;2.90;;;1.83;;
980;SDS011;479;53.514;9.994;2023-07-22T09:37:47;2.13;;;1.60;;
980;SDS011;479;53.514;9.994;2023-07-22T09:40:18;1.40;;;1.30;;
980;SDS011;479;53.514;9.994;2023-07-22T09:42:47;1.87;;;1.70;;
980;SDS011;479;53.514;9.994;2023-07-22T09:45:15;2.20;;;1.27;;
980;SDS011;479;53.514;9.994;2023-07-22T09:47:43;3.57;;;1.80;;
980;SDS011;479;53.514;9.994;2023-07-22T09:50:13;2.23;;;1.77;;
980;SDS011;479;53.514;9.994;2023-07-22T09:52:42;4.33;;;3.30;;
980;SDS011;479;53.514;9.994;2023-07-22T09:55:14;1.97;;;1.57;;
980;SDS011;479;53.514;9.994;2023-07-22T09:57:44;2.80;;;1.83;;
980;SDS011;479;53.514;9.994;2023-07-22T10:00:13;3.43;;;3.13;;
980;SDS011;479;53.514;9.994;2023-07-22T10:02:41;3.07;;;2.77;;
980;SDS011;479;53.514;9.994;2023-07-22T10:05:13;2.20;;;2.10;;
980;SDS011;479;53.514;9.994;2023-07-22T10:07:42;2.13;;;2.03;;
980;SDS011;479;53.514;9.994;2023-07-22T10:10:11;2.47;;;2.17;;
980;SDS011;479;53.514;9.994;2023-07-22T10:12:39;2.93;;;2.73;;
980;SDS011;479;53.514;9.994;2023-07-22T10:15:09;4.93;;;2.13;;
980;SDS011;479;53.514;9.994;2023-07-22T10:17:37;2.30;;;2.10;;
980;SDS011;479;53.514;9.994;2023-07-22T10:20:05;2.10;;;2.00;;
980;SDS011;479;53.514;9.994;2023-07-22T10:22:35;2.20;;;2.10;;
980;SDS011;479;53.514;9.994;2023-07-22T10:25:03;1.73;;;1.63;;
980;SDS011;479;53.514;9.994;2023-07-22T10:27:32;2.60;;;1.80;;
980;SDS011;479;53.514;9.994;2023-07-22T10:30:00;2.37;;;2.17;;
980;SDS011;479;53.514;9.994;2023-07-22T10:32:33;1.97;;;1.87;;
980;SDS011;479;53.514;9.994;2023-07-22T10:35:01;1.70;;;1.60;;
980;SDS011;479;53.514;9.994;2023-07-22T10:37:35;2.73;;;1.90;;
980;SDS011;479;53.514;9.994;2023-07-22T10:40:16;1.60;;;1.50;;
980;SDS011;479;53.514;9.994;2023-07-22T10:42:52;1.60;;;1.50;;
980;SDS011;479;53.514;9.994;2023-07-22T10:45:23;2.20;;;2.00;;
980;SDS011;479;53.514;9.994;2023-07-22T10:48:00;1.53;;;1.43;;
980;SDS011;479;53.514;9.994;2023-07-22T10:50:42;2.00;;;1.80;;
980;SDS011;479;53.514;9.994;2023-07-22T10:53:12;1.87;;;1.77;;
980;SDS011;479;53.514;9.994;2023-07-22T10:58:30;2.53;;;2.20;;
980;SDS011;479;53.514;9.994;2023-07-22T11:01:11;3.60;;;2.17;;
980;SDS011;479;53.514;9.994;2023-07-22T11:04:09;2.67;;;1.90;;
980;SDS011;479;53.514;9.994;2023-07-22T11:06:39;2.53;;;2.33;;
980;SDS011;479;53.514;9.994;2023-07-22T11:09:34;2.50;;;2.30;;
980;SDS011;479;53.514;9.994;2023-07-22T11:12:03;1.53;;;1.43;;
980;SDS011;479;53.514;9.994;2023-07-22T11:14:31;2.30;;;2.00;;
980;SDS011;479;53.514;9.994;2023-07-22T11:17:02;2.87;;;2.23;;
980;SDS011;479;53.514;9.994;2023-07-22T11:19:33;3.80;;;2.43;;
980;SDS011;479;53.514;9.994;2023-07-22T11:22:01;4.30;;;2.80;;
980;SDS011;479;53.514;9.994;2023-07-22T11:24:28;2.70;;;2.37;;
980;SDS011;479;53.514;9.994;2023-07-22T11:26:55;2.93;;;2.60;;
980;SDS011;479;53.514;9.994;2023-07-22T11:29:22;4.40;;;2.30;;
980;SDS011;479;53.514;9.994;2023-07-22T11:31:49;2.50;;;2.03;;
980;SDS011;479;53.514;9.994;2023-07-22T11:34:17;3.57;;;2.80;;
980;SDS011;479;53.514;9.994;2023-07-22T11:36:47;5.43;;;4.20;;
980;SDS011;479;53.514;9.994;2023-07-22T11:39:16;3.43;;;2.93;;
980;SDS011;479;53.514;9.994;2023-07-22T11:41:47;3.33;;;3.03;;
980;SDS011;479;53.514;9.994;2023-07-22T11:44:15;3.47;;;3.17;;
980;SDS011;479;53.514;9.994;2023-07-22T11:46:47;3.43;;;2.87;;
980;SDS011;479;53.514;9.994;2023-07-22T11:49:23;3.13;;;2.83;;
980;SDS011;479;53.514;9.994;2023-07-22T11:51:56;6.53;;;4.03;;
980;SDS011;479;53.514;9.994;2023-07-22T11:54:24;2.70;;;2.40;;
980;SDS011;479;53.514;9.994;2023-07-22T11:56:51;2.43;;;2.13;;
980;SDS011;479;53.514;9.994;2023-07-22T11:59:31;3.40;;;2.70;;
980;SDS011;479;53.514;9.994;2023-07-22T12:02:02;2.83;;;2.63;;
980;SDS011;479;53.514;9.994;2023-07-22T12:04:31;2.67;;;2.47;;
980;SDS011;479;53.514;9.994;2023-07-22T12:06:59;4.20;;;3.23;;
980;SDS011;479;53.514;9.994;2023-07-22T12:09:26;5.77;;;3.10;;
980;SDS011;479;53.514;9.994;2023-07-22T12:11:56;5.13;;;3.37;;
980;SDS011;479;53.514;9.994;2023-07-22T12:14:25;3.77;;;3.07;;
980;SDS011;479;53.514;9.994;2023-07-22T12:17:00;5.07;;;3.70;;
980;SDS011;479;53.514;9.994;2023-07-22T12:19:27;3.83;;;2.73;;
980;SDS011;479;53.514;9.994;2023-07-22T12:21:54;3.83;;;3.10;;
980;SDS011;479;53.514;9.994;2023-07-22T12:24:22;4.27;;;3.87;;
980;SDS011;479;53.514;9.994;2023-07-22T12:26:49;3.70;;;3.00;;
980;SDS011;479;53.514;9.994;2023-07-22T12:29:16;4.90;;;3.40;;
980;SDS011;479;53.514;9.994;2023-07-22T12:31:43;4.77;;;3.00;;
980;SDS011;479;53.514;9.994;2023-07-22T12:34:10;5.03;;;3.70;;
980;SDS011;479;53.514;9.994;2023-07-22T12:36:37;3.47;;;3.17;;
980;SDS011;479;53.514;9.994;2023-07-22T12:39:04;3.33;;;2.93;;
980;SDS011;479;53.514;9.994;2023-07-22T12:41:32;4.93;;;2.97;;
980;SDS011;479;53.514;9.994;2023-07-22T12:43:59;3.60;;;3.27;;
980;SDS011;479;53.514;9.994;2023-07-22T12:46:26;3.17;;;2.50;;
980;SDS011;479;53.514;9.994;2023-07-22T12:48:52;3.67;;;3.27;;
980;SDS011;479;53.514;9.994;2023-07-22T12:51:19;4.13;;;3.33;;
980;SDS011;479;53.514;9.994;2023-07-22T12:53:46;3.97;;;3.00;;
980;SDS011;479;53.514;9.994;2023-07-22T12:56:13;5.87;;;3.93;;
980;SDS011;479;53.514;9.994;2023-07-22T12:58:41;4.03;;;3.63;;
980;SDS011;479;53.514;9.994;2023-07-22T13:01:08;4.90;;;3.67;;
980;SDS011;479;53.514;9.994;2023-07-22T13:03:35;7.20;;;4.10;;
980;SDS011;479;53.514;9.994;2023-07-22T13:06:02;5.67;;;4.03;;
980;SDS011;479;53.514;9.994;2023-07-22T13:08:29;5.07;;;4.47;;
980;SDS011;479;53.514;9.994;2023-07-22T13:10:56;4.50;;;3.60;;
980;SDS011;479;53.514;9.994;2023-07-22T13:13:23;5.40;;;4.50;;
980;SDS011;479;53.514;9.994;2023-07-22T13:15:51;5.20;;;4.70;;
980;SDS011;479;53.514;9.994;2023-07-22T13:18:18;5.67;;;4.17;;
980;SDS011;479;53.514;9.994;2023-07-22T13:20:44;6.17;;;5.00;;
980;SDS011;479;53.514;9.994;2023-07-22T13:23:11;5.07;;;4.57;;
980;SDS011;479;53.514;9.994;2023-07-22T13:25:38;7.37;;;5.10;;
980;SDS011;479;53.514;9.994;2023-07-22T13:28:05;5.70;;;4.70;;
980;SDS011;479;53.514;9.994;2023-07-22T13:30:32;13.13;;;9.35;;
980;SDS011;479;53.514;9.994;2023-07-22T13:33:00;8.30;;;6.60;;
980;SDS011;479;53.514;9.994;2023-07-22T13:35:27;6.67;;;5.60;;
980;SDS011;479;53.514;9.994;2023-07-22T13:37:54;6.70;;;5.97;;
980;SDS011;479;53.514;9.994;2023-07-22T13:40:21;7.13;;;6.10;;
980;SDS011;479;53.514;9.994;2023-07-22T13:42:48;6.30;;;5.40;;
980;SDS011;479;53.514;9.994;2023-07-22T13:45:15;7.00;;;5.83;;
980;SDS011;479;53.514;9.994;2023-07-22T13:47:42;6.20;;;5.47;;
980;SDS011;479;53.514;9.994;2023-07-22T13:50:10;7.30;;;5.83;;
980;SDS011;479;53.514;9.994;2023-07-22T13:52:37;5.80;;;4.83;;
980;SDS011;479;53.514;9.994;2023-07-22T13:55:05;5.43;;;4.80;;
980;SDS011;479;53.514;9.994;2023-07-22T13:57:33;5.97;;;4.93;;
980;SDS011;479;53.514;9.994;2023-07-22T14:00:00;6.40;;;5.10;;
980;SDS011;479;53.514;9.994;2023-07-22T14:02:37;15.30;;;12.07;;
980;SDS011;479;53.514;9.994;2023-07-22T14:05:05;8.67;;;6.73;;
980;SDS011;479;53.514;9.994;2023-07-22T14:07:34;7.50;;;5.87;;
980;SDS011;479;53.514;9.994;2023-07-22T14:10:02;4.47;;;4.07;;
980;SDS011;479;53.514;9.994;2023-07-22T14:12:30;5.03;;;3.90;;
980;SDS011;479;53.514;9.994;2023-07-22T14:14:57;8.93;;;7.40;;
980;SDS011;479;53.514;9.994;2023-07-22T14:17:24;5.03;;;4.27;;
980;SDS011;479;53.514;9.994;2023-07-22T14:19:51;4.50;;;3.70;;
980;SDS011;479;53.514;9.994;2023-07-22T14:22:18;4.30;;;3.90;;
980;SDS011;479;53.514;9.994;2023-07-22T14:24:46;4.80;;;4.40;;
980;SDS011;479;53.514;9.994;2023-07-22T14:27:13;4.60;;;4.20;;
980;SDS011;479;53.514;9.994;2023-07-22T14:29:40;4.07;;;3.50;;
980;SDS011;479;53.514;9.994;2023-07-22T14:32:07;7.43;;;6.27;;
980;SDS011;479;53.514;9.994;2023-07-22T14:34:35;4.20;;;3.47;;
980;SDS011;479;53.514;9.994;2023-07-22T14:37:02;7.23;;;5.50;;
980;SDS011;479;53.514;9.994;2023-07-22T14:39:29;4.80;;;3.70;;
980;SDS011;479;53.514;9.994;2023-07-22T14:41:58;5.20;;;4.13;;
980;SDS011;479;53.514;9.994;2023-07-22T14:44:24;4.97;;;3.73;;
980;SDS011;479;53.514;9.994;2023-07-22T14:46:52;6.07;;;3.97;;
980;SDS011;479;53.514;9.994;2023-07-22T14:49:19;4.40;;;4.00;;
980;SDS011;479;53.514;9.994;2023-07-22T14:51:46;4.20;;;3.87;;
980;SDS011;479;53.514;9.994;2023-07-22T14:54:13;6.87;;;6.20;;
980;SDS011;479;53.514;9.994;2023-07-22T14:56:43;5.83;;;4.23;;
980;SDS011;479;53.514;9.994;2023-07-22T14:59:13;4.47;;;4.07;;
980;SDS011;479;53.514;9.994;2023-07-22T15:01:42;6.70;;;5.40;;
980;SDS011;479;53.514;9.994;2023-07-22T15:04:09;6.00;;;4.37;;
980;SDS011;479;53.514;9.994;2023-07-22T15:06:36;7.23;;;5.90;;
980;SDS011;479;53.514;9.994;2023-07-22T15:09:03;6.63;;;5.87;;
980;SDS011;479;53.514;9.994;2023-07-22T15:11:32;5.07;;;4.20;;
980;SDS011;479;53.514;9.994;2023-07-22T15:14:00;5.77;;;4.30;;
980;SDS011;479;53.514;9.994;2023-07-22T15:16:28;5.40;;;4.87;;
980;SDS011;479;53.514;9.994;2023-07-22T15:18:56;5.67;;;4.40;;
980;SDS011;479;53.514;9.994;2023-07-22T15:21:23;4.50;;;4.10;;
980;SDS011;479;53.514;9.994;2023-07-22T15:23:50;5.90;;;4.20;;
980;SDS011;479;53.514;9.994;2023-07-22T15:26:17;7.33;;;5.07;;
980;SDS011;479;53.514;9.994;2023-07-22T15:28:44;4.80;;;4.13;;
980;SDS011;479;53.514;9.994;2023-07-22T15:31:13;11.43;;;4.73;;
980;SDS011;479;53.514;9.994;2023-07-22T15:33:45;4.80;;;4.20;;
980;SDS011;479;53.514;9.994;2023-07-22T15:36:13;4.33;;;3.93;;
980;SDS011;479;53.514;9.994;2023-07-22T15:38:41;10.13;;;7.93;;
980;SDS011;479;53.514;9.994;2023-07-22T15:41:08;4.90;;;4.50;;
980;SDS011;479;53.514;9.994;2023-07-22T15:43:35;5.33;;;4.83;;
980;SDS011;479;53.514;9.994;2023-07-22T15:46:02;4.57;;;4.07;;
980;SDS011;479;53.514;9.994;2023-07-22T15:48:29;6.03;;;4.67;;
980;SDS011;479;53.514;9.994;2023-07-22T15:50:57;10.20;;;7.40;;
980;SDS011;479;53.514;9.994;2023-07-22T15:53:24;7.17;;;5.80;;